Time;durP1;ratioP1;P1;durP2;ratioP2;P2;SDS_P1;SDS_P2;PMS_P1;PMS_P2;Temp;Humidity;BMP_temperature;BMP_pressure;BME280_temperature;BME280_humidity;BME280_pressure;Samples;Min_cycle;Max_cycle;Signal;HPM_P1;HPM_P2
2023/01/18 00:02:29;;;;;;;87.65;39.75;;;;;;;;;;6269315;28;20052;-82
2023/01/18 00:05:30;;;;;;;81.97;39.80;;;;;;;;;;6267848;28;20056;-82
2023/01/18 00:08:33;;;;;;;83.18;38.35;;;;;;;;;;6269050;28;20181;-82
2023/01/18 00:11:35;;;;;;;70.82;33.72;;;;;;;;;;6259646;28;20599;-82
2023/01/18 00:14:37;;;;;;;65.22;31.60;;;;;;;;;;6263360;28;20390;-71
2023/01/18 00:17:50;;;;;;;63.70;30.60;;;;;;;;;;6259545;28;21214;-78
2023/01/18 00:20:52;;;;;;;65.05;31.05;;;;;;;;;;6269437;28;20052;-77
2023/01/18 00:23:54;;;;;;;59.20;30.10;;;;;;;;;;6263602;28;20060;-73
2023/01/18 00:26:56;;;;;;;63.78;30.10;;;;;;;;;;6265925;28;20057;-75
2023/01/18 00:29:58;;;;;;;59.15;29.02;;;;;;;;;;6266561;28;20332;-81
2023/01/18 00:33:01;;;;;;;62.63;29.17;;;;;;;;;;6260917;28;20325;-72
2023/01/18 00:36:03;;;;;;;54.45;26.77;;;;;;;;;;6266452;28;20049;-80
2023/01/18 00:39:07;;;;;;;53.15;25.70;;;;;;;;;;6265981;28;20256;-76
2023/01/18 00:45:28;;;;;;;54.75;25.65;;;;;;;;;;6257732;28;20053;-81
2023/01/18 00:48:30;;;;;;;61.30;29.98;;;;;;;;;;6263238;28;20060;-76
2023/01/18 00:51:32;;;;;;;56.88;27.50;;;;;;;;;;6260681;28;20348;-77
2023/01/18 00:54:34;;;;;;;54.28;27.10;;;;;;;;;;6260893;28;20059;-80
2023/01/18 00:57:36;;;;;;;54.60;29.05;;;;;;;;;;6260053;28;20099;-76
2023/01/18 01:00:37;;;;;;;58.78;27.50;;;;;;;;;;6263268;28;20061;-80
2023/01/18 01:07:00;;;;;;;53.50;26.88;;;;;;;;;;6259326;28;20053;-78
2023/01/18 01:10:07;;;;;;;52.72;26.48;;;;;;;;;;6255813;28;20060;-78
2023/01/18 01:26:29;;;;;;;50.42;25.27;;;;;;;;;;6264175;28;20326;-79
2023/01/18 01:29:31;;;;;;;49.28;25.25;;;;;;;;;;6263213;28;20049;-78
2023/01/18 01:32:32;;;;;;;53.83;26.05;;;;;;;;;;6263590;28;20049;-77
2023/01/18 01:35:35;;;;;;;51.95;24.50;;;;;;;;;;6269141;28;20041;-78
2023/01/18 01:38:37;;;;;;;51.17;24.45;;;;;;;;;;6263265;28;20057;-80
2023/01/18 01:41:39;;;;;;;56.83;26.33;;;;;;;;;;6261456;28;20333;-76
2023/01/18 01:44:45;;;;;;;46.45;23.15;;;;;;;;;;6265132;28;20053;-80
2023/01/18 01:47:47;;;;;;;47.88;23.92;;;;;;;;;;6261790;28;20072;-81
2023/01/18 01:50:50;;;;;;;51.58;25.70;;;;;;;;;;6262311;28;20343;-78
2023/01/18 01:53:52;;;;;;;47.78;23.95;;;;;;;;;;6264994;28;20057;-81
2023/01/18 01:56:57;;;;;;;49.40;23.65;;;;;;;;;;6265959;28;20057;-79
2023/01/18 02:00:00;;;;;;;51.67;24.42;;;;;;;;;;6264379;28;20053;-77
2023/01/18 02:03:05;;;;;;;47.50;23.77;;;;;;;;;;6260177;28;20057;-78
2023/01/18 02:06:13;;;;;;;44.58;22.85;;;;;;;;;;6265075;28;20347;-76
2023/01/18 02:09:15;;;;;;;41.75;21.50;;;;;;;;;;6260557;28;20053;-79
2023/01/18 02:12:17;;;;;;;42.83;22.20;;;;;;;;;;6260730;28;20059;-81
2023/01/18 02:15:21;;;;;;;43.05;22.70;;;;;;;;;;6267606;28;20321;-79
2023/01/18 02:18:26;;;;;;;42.15;22.23;;;;;;;;;;6261510;28;20280;-77
2023/01/18 02:21:35;;;;;;;40.00;22.35;;;;;;;;;;6265376;28;20260;-77
2023/01/18 02:25:00;;;;;;;41.55;22.08;;;;;;;;;;6262827;28;20422;-80
2023/01/18 02:28:09;;;;;;;41.25;21.08;;;;;;;;;;6261218;28;20053;-82
2023/01/18 02:31:15;;;;;;;38.90;20.77;;;;;;;;;;6260881;28;20063;-80
2023/01/18 02:34:22;;;;;;;43.85;21.35;;;;;;;;;;6265192;28;20053;-80
2023/01/18 02:37:29;;;;;;;40.72;19.42;;;;;;;;;;6263014;28;20329;-77
2023/01/18 02:40:38;;;;;;;41.10;21.13;;;;;;;;;;6257247;28;20057;-77
2023/01/18 02:47:16;;;;;;;42.72;21.52;;;;;;;;;;6212386;28;20116;-80
2023/01/18 02:50:26;;;;;;;41.60;21.00;;;;;;;;;;6211875;28;20049;-77
2023/01/18 02:53:28;;;;;;;38.65;20.95;;;;;;;;;;6216362;28;20054;-81
2023/01/18 02:56:32;;;;;;;41.08;21.52;;;;;;;;;;6209910;28;20053;-75
2023/01/18 02:59:38;;;;;;;36.92;20.67;;;;;;;;;;6209868;28;20054;-79
2023/01/18 03:02:41;;;;;;;37.58;19.98;;;;;;;;;;6214295;28;20125;-77
2023/01/18 03:05:45;;;;;;;38.40;20.23;;;;;;;;;;6213100;28;20050;-71
2023/01/18 03:08:48;;;;;;;41.85;22.17;;;;;;;;;;6211052;28;20062;-81
2023/01/18 03:11:57;;;;;;;45.00;22.90;;;;;;;;;;6210232;28;20050;-72
2023/01/18 03:15:07;;;;;;;42.63;22.77;;;;;;;;;;6209844;28;20116;-72
2023/01/18 03:18:12;;;;;;;41.03;21.50;;;;;;;;;;6240830;28;20049;-81
2023/01/18 03:21:14;;;;;;;37.60;19.88;;;;;;;;;;6261415;28;20260;-77
2023/01/18 03:24:16;;;;;;;40.42;21.25;;;;;;;;;;6258654;28;20053;-80
2023/01/18 03:34:01;;;;;;;39.47;19.30;;;;;;;;;;6263991;28;20049;-81
2023/01/18 03:37:06;;;;;;;39.63;20.35;;;;;;;;;;6263182;28;20056;-77
2023/01/18 03:40:11;;;;;;;35.88;18.83;;;;;;;;;;6257398;28;20045;-73
2023/01/18 03:43:15;;;;;;;38.95;20.40;;;;;;;;;;6261004;28;20064;-80
2023/01/18 03:46:18;;;;;;;37.65;19.63;;;;;;;;;;6266489;28;20063;-81
2023/01/18 03:49:20;;;;;;;39.83;21.00;;;;;;;;;;6260269;28;20337;-80
2023/01/18 03:52:24;;;;;;;43.65;22.02;;;;;;;;;;6267435;28;20052;-81
2023/01/18 03:55:30;;;;;;;38.15;19.83;;;;;;;;;;6267818;28;20240;-80
2023/01/18 03:58:35;;;;;;;36.58;20.90;;;;;;;;;;6265975;28;20045;-80
2023/01/18 04:01:38;;;;;;;38.30;20.38;;;;;;;;;;6268371;28;20550;-80
2023/01/18 04:04:39;;;;;;;39.70;20.67;;;;;;;;;;6264108;28;20103;-78
2023/01/18 04:07:41;;;;;;;37.67;19.02;;;;;;;;;;6266499;28;20114;-71
2023/01/18 04:10:43;;;;;;;39.83;20.55;;;;;;;;;;6267975;28;20509;-79
2023/01/18 04:13:44;;;;;;;34.75;18.85;;;;;;;;;;6263187;28;20049;-76
2023/01/18 04:16:47;;;;;;;40.95;20.55;;;;;;;;;;6266381;28;20053;-79
2023/01/18 04:19:49;;;;;;;37.88;20.15;;;;;;;;;;6267894;28;20057;-82
2023/01/18 04:22:51;;;;;;;33.78;19.88;;;;;;;;;;6263688;28;20046;-79
2023/01/18 04:25:53;;;;;;;35.30;19.08;;;;;;;;;;6262834;28;20081;-80
2023/01/18 04:28:55;;;;;;;33.95;18.95;;;;;;;;;;6265209;28;20111;-80
2023/01/18 04:31:58;;;;;;;34.92;18.85;;;;;;;;;;6268436;28;20061;-79
2023/01/18 04:34:59;;;;;;;38.15;20.40;;;;;;;;;;6267023;28;20045;-74
2023/01/18 04:38:01;;;;;;;36.28;19.42;;;;;;;;;;6265461;28;20075;-80
2023/01/18 04:41:03;;;;;;;38.90;20.58;;;;;;;;;;6263305;28;21321;-73
2023/01/18 04:44:05;;;;;;;39.03;20.25;;;;;;;;;;6264819;28;20057;-81
2023/01/18 04:47:07;;;;;;;37.22;20.08;;;;;;;;;;6261721;28;20061;-72
2023/01/18 04:50:11;;;;;;;36.90;19.88;;;;;;;;;;6264903;28;20045;-81
2023/01/18 04:53:12;;;;;;;40.90;21.17;;;;;;;;;;6267997;28;20111;-82
2023/01/18 04:56:14;;;;;;;40.42;20.77;;;;;;;;;;6266187;28;20048;-79
2023/01/18 04:59:16;;;;;;;39.95;21.63;;;;;;;;;;6266853;28;20145;-81
2023/01/18 05:02:19;;;;;;;40.70;21.80;;;;;;;;;;6263909;28;20091;-81
2023/01/18 05:05:21;;;;;;;40.17;21.15;;;;;;;;;;6260005;28;20344;-80
2023/01/18 05:08:22;;;;;;;44.00;22.17;;;;;;;;;;6263543;28;20053;-80
2023/01/18 05:11:24;;;;;;;38.97;21.48;;;;;;;;;;6263615;28;20054;-81
2023/01/18 05:14:26;;;;;;;43.33;22.80;;;;;;;;;;6262569;28;20061;-79
2023/01/18 05:17:29;;;;;;;39.55;21.13;;;;;;;;;;6264696;28;20056;-70
2023/01/18 05:20:30;;;;;;;45.47;21.85;;;;;;;;;;6270732;28;20263;-78
2023/01/18 05:23:32;;;;;;;42.33;22.67;;;;;;;;;;6265534;28;20053;-77
2023/01/18 05:26:34;;;;;;;43.22;22.15;;;;;;;;;;6264467;28;20106;-79
2023/01/18 05:29:36;;;;;;;44.08;23.25;;;;;;;;;;6257287;28;20053;-74
2023/01/18 05:32:39;;;;;;;48.90;23.33;;;;;;;;;;6263851;28;20263;-78
2023/01/18 05:35:40;;;;;;;42.03;22.63;;;;;;;;;;6263901;28;20059;-77
2023/01/18 05:38:42;;;;;;;48.42;22.80;;;;;;;;;;6265789;28;20380;-78
2023/01/18 05:41:43;;;;;;;45.28;22.50;;;;;;;;;;6263078;28;20618;-68
2023/01/18 05:44:45;;;;;;;44.78;23.42;;;;;;;;;;6267402;28;20328;-77
2023/01/18 05:47:48;;;;;;;46.28;24.40;;;;;;;;;;6264245;28;20075;-77
2023/01/18 05:50:50;;;;;;;45.25;23.00;;;;;;;;;;6266534;28;20051;-79
2023/01/18 05:53:51;;;;;;;47.53;23.10;;;;;;;;;;6262482;28;20132;-77
2023/01/18 05:56:53;;;;;;;46.70;21.77;;;;;;;;;;6263742;28;20052;-77
2023/01/18 05:59:55;;;;;;;44.33;22.98;;;;;;;;;;6265499;28;20048;-79
2023/01/18 06:02:58;;;;;;;47.25;23.95;;;;;;;;;;6260848;28;20056;-78
2023/01/18 06:06:00;;;;;;;44.97;23.17;;;;;;;;;;6262215;28;20053;-74
2023/01/18 06:09:02;;;;;;;44.15;22.30;;;;;;;;;;6264261;28;20174;-76
2023/01/18 06:12:04;;;;;;;50.33;24.55;;;;;;;;;;6266507;28;20052;-69
2023/01/18 06:15:07;;;;;;;40.75;22.15;;;;;;;;;;6257250;28;20061;-76
2023/01/18 06:18:10;;;;;;;44.40;22.55;;;;;;;;;;6265249;28;20050;-76
2023/01/18 06:21:12;;;;;;;41.97;20.60;;;;;;;;;;6263906;28;20065;-72
2023/01/18 06:24:14;;;;;;;43.38;22.05;;;;;;;;;;6261823;28;20219;-77
2023/01/18 06:27:15;;;;;;;42.72;22.75;;;;;;;;;;6263359;28;20052;-78
2023/01/18 06:30:18;;;;;;;53.05;25.23;;;;;;;;;;6265301;28;20075;-75
2023/01/18 06:33:22;;;;;;;42.53;22.85;;;;;;;;;;6261872;28;20147;-74
2023/01/18 06:36:23;;;;;;;41.97;22.30;;;;;;;;;;6264943;28;20037;-74
2023/01/18 06:39:25;;;;;;;43.80;21.77;;;;;;;;;;6262944;28;20071;-74
2023/01/18 06:42:27;;;;;;;42.40;22.13;;;;;;;;;;6262571;28;20091;-74
2023/01/18 06:45:29;;;;;;;48.72;23.42;;;;;;;;;;6261373;28;20108;-74
2023/01/18 06:48:32;;;;;;;43.75;22.17;;;;;;;;;;6261973;28;20053;-74
2023/01/18 06:51:34;;;;;;;42.53;22.40;;;;;;;;;;6260368;28;20048;-75
2023/01/18 06:54:35;;;;;;;44.05;22.75;;;;;;;;;;6259585;28;20053;-74
2023/01/18 06:57:37;;;;;;;44.45;22.08;;;;;;;;;;6260737;28;20280;-74
2023/01/18 07:00:39;;;;;;;39.28;21.30;;;;;;;;;;6263021;28;20046;-73
2023/01/18 07:03:42;;;;;;;41.80;22.85;;;;;;;;;;6260002;28;20049;-75
2023/01/18 07:06:43;;;;;;;41.50;22.05;;;;;;;;;;6265179;28;20116;-73
2023/01/18 07:09:45;;;;;;;39.40;21.70;;;;;;;;;;6263902;28;20049;-76
2023/01/18 07:12:47;;;;;;;39.17;21.35;;;;;;;;;;6260796;28;20057;-75
2023/01/18 07:15:53;;;;;;;40.55;21.40;;;;;;;;;;6262791;28;20103;-75
2023/01/18 07:18:59;;;;;;;43.85;20.42;;;;;;;;;;6264712;28;20064;-77
2023/01/18 07:22:01;;;;;;;46.88;23.55;;;;;;;;;;6261901;28;20096;-78
2023/01/18 07:25:03;;;;;;;46.95;22.30;;;;;;;;;;6256839;28;20053;-77
2023/01/18 07:28:05;;;;;;;38.92;20.75;;;;;;;;;;6268491;28;20124;-77
2023/01/18 07:31:07;;;;;;;46.90;22.05;;;;;;;;;;6270724;28;20077;-78
2023/01/18 07:34:11;;;;;;;43.65;22.67;;;;;;;;;;6273780;28;20053;-74
2023/01/18 07:37:12;;;;;;;42.25;22.33;;;;;;;;;;6273709;28;20320;-77
2023/01/18 07:40:15;;;;;;;46.53;22.27;;;;;;;;;;6272480;28;20056;-78
2023/01/18 07:43:17;;;;;;;44.88;21.95;;;;;;;;;;6266144;28;20049;-77
2023/01/18 07:46:19;;;;;;;41.15;21.50;;;;;;;;;;6270994;28;20364;-77
2023/01/18 07:49:22;;;;;;;37.05;20.88;;;;;;;;;;6271983;28;20376;-77
2023/01/18 07:52:24;;;;;;;41.40;22.73;;;;;;;;;;6271490;28;20355;-77
2023/01/18 07:55:26;;;;;;;38.40;21.25;;;;;;;;;;6271972;28;20064;-77
2023/01/18 07:58:28;;;;;;;44.65;23.80;;;;;;;;;;6271111;28;20064;-77
2023/01/18 08:01:29;;;;;;;39.08;22.30;;;;;;;;;;6268942;28;20078;-77
2023/01/18 08:04:32;;;;;;;38.28;20.77;;;;;;;;;;6268241;28;20053;-76
2023/01/18 08:07:35;;;;;;;34.75;20.02;;;;;;;;;;6265752;28;20322;-78
2023/01/18 08:10:37;;;;;;;31.38;19.50;;;;;;;;;;6267240;28;20292;-77
2023/01/18 08:13:40;;;;;;;28.48;17.40;;;;;;;;;;6268235;28;20037;-77
2023/01/18 08:16:43;;;;;;;33.75;17.20;;;;;;;;;;6268113;28;20124;-73
2023/01/18 08:19:46;;;;;;;34.90;19.20;;;;;;;;;;6270714;28;20057;-77
2023/01/18 08:22:48;;;;;;;33.65;17.92;;;;;;;;;;6263421;28;20061;-77
2023/01/18 08:25:50;;;;;;;32.00;17.88;;;;;;;;;;6263276;28;20103;-74
2023/01/18 08:28:51;;;;;;;33.30;18.90;;;;;;;;;;6267641;28;20091;-77
2023/01/18 08:31:53;;;;;;;35.05;17.63;;;;;;;;;;6265014;28;20045;-78
2023/01/18 08:34:56;;;;;;;31.48;17.92;;;;;;;;;;6268057;28;20060;-78
2023/01/18 08:37:59;;;;;;;34.80;18.92;;;;;;;;;;6268043;28;20060;-77
2023/01/18 08:41:02;;;;;;;34.33;17.48;;;;;;;;;;6267478;28;20058;-77
2023/01/18 08:44:04;;;;;;;36.30;18.52;;;;;;;;;;6265258;28;20106;-76
2023/01/18 08:47:05;;;;;;;29.67;17.65;;;;;;;;;;6264453;28;20064;-77
2023/01/18 08:50:11;;;;;;;33.33;19.23;;;;;;;;;;6266383;28;20064;-77
2023/01/18 08:53:13;;;;;;;31.30;18.23;;;;;;;;;;6267292;28;20067;-71
2023/01/18 08:56:14;;;;;;;31.20;18.30;;;;;;;;;;6266819;28;20118;-77
2023/01/18 08:59:16;;;;;;;30.13;17.13;;;;;;;;;;6265107;28;20056;-77
2023/01/18 09:02:18;;;;;;;31.65;17.20;;;;;;;;;;6264804;28;20080;-77
2023/01/18 09:05:21;;;;;;;29.58;16.70;;;;;;;;;;6265569;28;20045;-74
2023/01/18 09:08:23;;;;;;;27.48;16.42;;;;;;;;;;6267244;28;20057;-76
2023/01/18 09:11:24;;;;;;;27.55;15.57;;;;;;;;;;6264794;28;20044;-78
2023/01/18 09:14:26;;;;;;;30.13;15.95;;;;;;;;;;6264111;28;20095;-77
2023/01/18 09:17:28;;;;;;;26.80;16.55;;;;;;;;;;6274765;28;20047;-77
2023/01/18 09:20:31;;;;;;;28.50;16.00;;;;;;;;;;6266235;28;20053;-77
2023/01/18 09:23:33;;;;;;;28.20;15.90;;;;;;;;;;6263702;28;20956;-75
2023/01/18 09:26:35;;;;;;;36.33;18.05;;;;;;;;;;6262716;28;20406;-75
2023/01/18 09:29:36;;;;;;;34.50;17.60;;;;;;;;;;6257948;28;20064;-77
2023/01/18 09:32:38;;;;;;;36.13;18.80;;;;;;;;;;6261974;28;20071;-77
2023/01/18 09:35:41;;;;;;;39.28;19.63;;;;;;;;;;6268447;28;20341;-78
2023/01/18 09:38:44;;;;;;;39.88;18.92;;;;;;;;;;6263062;28;20045;-77
2023/01/18 09:41:51;;;;;;;35.22;17.58;;;;;;;;;;6264890;28;20057;-76
2023/01/18 09:44:54;;;;;;;34.15;18.00;;;;;;;;;;6262360;28;20076;-75
2023/01/18 09:48:01;;;;;;;31.10;17.02;;;;;;;;;;6256503;28;20130;-77
2023/01/18 09:51:08;;;;;;;28.38;16.10;;;;;;;;;;6261252;28;20053;-73
2023/01/18 09:54:17;;;;;;;26.23;15.70;;;;;;;;;;6262613;28;20076;-75
2023/01/18 09:57:30;;;;;;;27.05;14.07;;;;;;;;;;6266518;28;20297;-78
2023/01/18 10:00:34;;;;;;;22.00;13.98;;;;;;;;;;6264412;28;20332;-76
2023/01/18 10:03:46;;;;;;;;;;;;;;;;;;6264841;28;20114;-77
2023/01/18 10:06:52;;;;;;;25.92;13.50;;;;;;;;;;6264779;28;19929;-78
2023/01/18 10:09:55;;;;;;;21.25;12.68;;;;;;;;;;6266447;28;20102;-71
2023/01/18 10:13:10;;;;;;;21.50;13.57;;;;;;;;;;6264687;28;20107;-78
2023/01/18 10:16:14;;;;;;;25.50;13.63;;;;;;;;;;6264752;28;20052;-77
2023/01/18 10:19:20;;;;;;;27.87;14.33;;;;;;;;;;6261739;28;20080;-74
2023/01/18 10:22:26;;;;;;;23.67;13.95;;;;;;;;;;6263341;28;20068;-77
2023/01/18 10:25:32;;;;;;;23.85;14.75;;;;;;;;;;6262098;28;20072;-78
2023/01/18 10:28:44;;;;;;;22.35;14.73;;;;;;;;;;6264556;28;20111;-77
2023/01/18 10:31:50;;;;;;;23.08;15.10;;;;;;;;;;6265468;28;20083;-78
2023/01/18 10:34:52;;;;;;;26.33;15.75;;;;;;;;;;6265655;28;20056;-77
2023/01/18 10:37:57;;;;;;;25.13;15.15;;;;;;;;;;6265539;28;20072;-74
2023/01/18 10:41:00;;;;;;;24.20;14.50;;;;;;;;;;6262263;28;20183;-72
2023/01/18 10:44:02;;;;;;;24.20;15.18;;;;;;;;;;6265384;28;20060;-73
2023/01/18 10:47:04;;;;;;;23.20;14.45;;;;;;;;;;6265197;28;20065;-76
2023/01/18 10:50:13;;;;;;;37.20;16.20;;;;;;;;;;6264553;28;20060;-74
2023/01/18 10:53:26;;;;;;;25.35;14.18;;;;;;;;;;6263976;28;20352;-78
2023/01/18 10:56:28;;;;;;;27.60;15.15;;;;;;;;;;6262552;28;20059;-77
2023/01/18 10:59:35;;;;;;;21.92;13.45;;;;;;;;;;6263763;28;20075;-77
2023/01/18 11:02:37;;;;;;;22.10;14.15;;;;;;;;;;6264004;28;20115;-77
2023/01/18 11:05:44;;;;;;;25.90;15.63;;;;;;;;;;6262953;28;20049;-76
2023/01/18 11:08:47;;;;;;;21.75;14.85;;;;;;;;;;6263719;28;20064;-77
2023/01/18 11:15:23;;;;;;;23.30;14.57;;;;;;;;;;6256131;28;20060;-72
2023/01/18 11:18:25;;;;;;;27.17;16.20;;;;;;;;;;6259653;28;20052;-77
2023/01/18 11:21:30;;;;;;;22.88;15.18;;;;;;;;;;6260577;28;20057;-72
2023/01/18 11:24:36;;;;;;;24.60;15.63;;;;;;;;;;6267032;28;20103;-78
2023/01/18 11:27:42;;;;;;;24.98;15.77;;;;;;;;;;6260475;28;20079;-73
2023/01/18 11:30:51;;;;;;;22.48;15.15;;;;;;;;;;6260869;28;20053;-72
2023/01/18 11:33:54;;;;;;;26.60;16.77;;;;;;;;;;6259575;28;20080;-78
2023/01/18 11:36:58;;;;;;;27.08;17.55;;;;;;;;;;6262558;28;20152;-75
2023/01/18 11:40:25;;;;;;;28.73;18.02;;;;;;;;;;6254058;28;20094;-72
2023/01/18 11:43:27;;;;;;;48.58;27.75;;;;;;;;;;6264531;28;20341;-77
2023/01/18 11:46:33;;;;;;;68.30;43.00;;;;;;;;;;6262841;28;20337;-78
2023/01/18 11:49:41;;;;;;;30.15;19.98;;;;;;;;;;6262342;28;20068;-79
2023/01/18 11:52:50;;;;;;;26.42;16.92;;;;;;;;;;6260277;28;20052;-79
2023/01/18 11:56:00;;;;;;;30.10;18.55;;;;;;;;;;6259960;28;20049;-77
2023/01/18 11:59:03;;;;;;;34.67;19.98;;;;;;;;;;6261394;28;20121;-76
2023/01/18 12:02:29;;;;;;;35.25;20.10;;;;;;;;;;6255013;28;20069;-74
2023/01/18 12:05:44;;;;;;;43.67;21.77;;;;;;;;;;6256321;28;20049;-79
2023/01/18 12:09:03;;;;;;;44.30;23.30;;;;;;;;;;6264553;28;20053;-78
2023/01/18 12:12:18;;;;;;;46.85;23.38;;;;;;;;;;6261937;28;20050;-78
2023/01/18 12:15:38;;;;;;;50.00;23.95;;;;;;;;;;6266366;28;20065;-75
2023/01/18 12:19:03;;;;;;;53.75;25.60;;;;;;;;;;6266031;28;20055;-77
2023/01/18 12:22:40;;;;;;;48.75;23.75;;;;;;;;;;6263820;28;20048;-77
2023/01/18 12:25:54;;;;;;;49.85;22.83;;;;;;;;;;6267449;28;20061;-79
2023/01/18 12:29:18;;;;;;;46.78;22.85;;;;;;;;;;6267706;28;20424;-76
2023/01/18 12:32:33;;;;;;;44.72;22.45;;;;;;;;;;6263812;28;20033;-76
2023/01/18 12:35:47;;;;;;;;;;;;;;;;;;6262879;28;20318;-73
2023/01/18 12:38:51;;;;;;;42.05;21.08;;;;;;;;;;6264491;28;19917;-75
2023/01/18 12:41:57;;;;;;;45.00;22.38;;;;;;;;;;6265477;28;20375;-74
2023/01/18 12:45:11;;;;;;;43.53;22.38;;;;;;;;;;6264252;28;20128;-74
2023/01/18 12:48:17;;;;;;;44.05;22.67;;;;;;;;;;6265604;28;20065;-75
2023/01/18 12:51:20;;;;;;;43.90;22.52;;;;;;;;;;6266373;28;20061;-74
2023/01/18 12:54:28;;;;;;;41.88;22.15;;;;;;;;;;6263231;28;20060;-70
2023/01/18 12:57:30;;;;;;;39.90;20.67;;;;;;;;;;6265477;28;20376;-75
2023/01/18 13:00:35;;;;;;;40.67;20.90;;;;;;;;;;6263165;28;20057;-73
2023/01/18 13:03:39;;;;;;;39.90;20.77;;;;;;;;;;6268124;28;20057;-75
2023/01/18 13:06:41;;;;;;;34.00;18.13;;;;;;;;;;6267784;28;20091;-72
2023/01/18 13:09:46;;;;;;;37.55;19.05;;;;;;;;;;6265796;28;20233;-74
2023/01/18 13:12:49;;;;;;;35.83;20.23;;;;;;;;;;6262390;28;20053;-75
2023/01/18 13:15:57;;;;;;;37.28;20.25;;;;;;;;;;6265329;28;20045;-75
2023/01/18 13:19:02;;;;;;;32.00;18.08;;;;;;;;;;6263672;28;20140;-73
2023/01/18 13:22:09;;;;;;;33.85;18.80;;;;;;;;;;6268106;28;20064;-74
2023/01/18 13:25:28;;;;;;;32.10;18.23;;;;;;;;;;6264262;28;20044;-75
2023/01/18 13:28:29;;;;;;;34.55;18.35;;;;;;;;;;6265586;28;20494;-74
2023/01/18 13:31:33;;;;;;;34.45;18.38;;;;;;;;;;6266444;28;20056;-74
2023/01/18 13:34:36;;;;;;;33.97;19.00;;;;;;;;;;6267160;28;22147;-74
2023/01/18 13:37:41;;;;;;;32.78;17.13;;;;;;;;;;6266244;28;20862;-71
2023/01/18 13:40:51;;;;;;;33.35;18.33;;;;;;;;;;6264450;28;20064;-73
2023/01/18 13:44:02;;;;;;;30.58;17.42;;;;;;;;;;6262576;28;20053;-75
2023/01/18 13:47:47;;;;;;;30.38;17.25;;;;;;;;;;6258564;28;20124;-74
2023/01/18 13:50:51;;;;;;;29.55;17.40;;;;;;;;;;6267158;28;20045;-75
2023/01/18 13:53:52;;;;;;;32.40;17.83;;;;;;;;;;6265700;28;20045;-71
2023/01/18 13:57:18;;;;;;;30.95;16.70;;;;;;;;;;6265007;28;20060;-74
2023/01/18 14:00:24;;;;;;;31.60;17.50;;;;;;;;;;6247423;28;20135;-79
2023/01/18 14:03:29;;;;;;;36.45;19.60;;;;;;;;;;6266568;28;20076;-74
2023/01/18 14:06:32;;;;;;;111.72;51.28;;;;;;;;;;6268271;28;20064;-79
2023/01/18 14:09:37;;;;;;;60.90;30.60;;;;;;;;;;6266459;28;20111;-80
2023/01/18 14:12:46;;;;;;;61.63;29.83;;;;;;;;;;6266267;28;20326;-77
2023/01/18 14:15:51;;;;;;;53.28;27.65;;;;;;;;;;6268169;28;20111;-80
2023/01/18 14:18:56;;;;;;;71.80;36.15;;;;;;;;;;6265895;28;20045;-81
2023/01/18 14:22:21;;;;;;;63.35;32.33;;;;;;;;;;6265115;28;20049;-76
2023/01/18 14:25:40;;;;;;;;;;;;;;;;;;6264351;28;20053;-78
2023/01/18 14:28:48;;;;;;;31.10;17.55;;;;;;;;;;6264708;28;19923;-78
2023/01/18 14:31:52;;;;;;;31.95;17.75;;;;;;;;;;6258962;28;20060;-74
2023/01/18 14:34:59;;;;;;;28.83;16.38;;;;;;;;;;6264862;28;20107;-76
2023/01/18 14:38:05;;;;;;;31.08;17.67;;;;;;;;;;6261434;28;20056;-74
2023/01/18 14:41:08;;;;;;;28.60;16.38;;;;;;;;;;6265870;28;20094;-72
2023/01/18 14:44:18;;;;;;;32.35;17.08;;;;;;;;;;6262953;28;20351;-77
2023/01/18 14:47:20;;;;;;;33.80;17.83;;;;;;;;;;6262742;28;20061;-76
2023/01/18 14:50:24;;;;;;;33.47;17.90;;;;;;;;;;6265133;28;20052;-77
2023/01/18 14:53:28;;;;;;;31.27;17.45;;;;;;;;;;6262614;28;20117;-77
2023/01/18 14:56:32;;;;;;;32.80;17.50;;;;;;;;;;6263795;28;20052;-78
2023/01/18 14:59:34;;;;;;;28.20;15.75;;;;;;;;;;6261051;28;20053;-75
2023/01/18 15:02:38;;;;;;;28.13;16.33;;;;;;;;;;6264018;28;20057;-74
2023/01/18 15:05:42;;;;;;;30.42;16.35;;;;;;;;;;6265202;28;20053;-75
2023/01/18 15:08:44;;;;;;;34.92;18.45;;;;;;;;;;6261290;28;20275;-70
2023/01/18 15:11:47;;;;;;;35.72;19.80;;;;;;;;;;6260700;28;20372;-73
2023/01/18 15:14:49;;;;;;;39.55;20.35;;;;;;;;;;6263116;28;20067;-75
2023/01/18 15:17:51;;;;;;;34.92;18.00;;;;;;;;;;6265183;28;20057;-75
2023/01/18 15:20:56;;;;;;;37.08;19.17;;;;;;;;;;6263515;28;20059;-75
2023/01/18 15:24:02;;;;;;;35.78;18.58;;;;;;;;;;6260924;28;20116;-74
2023/01/18 15:27:04;;;;;;;35.05;18.50;;;;;;;;;;6262072;28;20057;-75
2023/01/18 15:30:12;;;;;;;30.67;17.42;;;;;;;;;;6262238;28;20312;-75
2023/01/18 15:33:14;;;;;;;32.47;17.65;;;;;;;;;;6262698;28;20091;-75
2023/01/18 15:36:17;;;;;;;35.03;17.88;;;;;;;;;;6261006;28;20060;-75
2023/01/18 15:39:19;;;;;;;36.38;19.02;;;;;;;;;;6261490;28;20094;-71
2023/01/18 15:42:21;;;;;;;36.22;19.90;;;;;;;;;;6261891;28;20060;-73
2023/01/18 15:45:26;;;;;;;33.35;18.15;;;;;;;;;;6263992;28;20055;-73
2023/01/18 15:48:31;;;;;;;33.75;18.40;;;;;;;;;;6267282;28;20053;-75
2023/01/18 15:55:01;;;;;;;37.22;18.13;;;;;;;;;;6269483;28;20053;-77
2023/01/18 15:58:09;;;;;;;35.50;18.50;;;;;;;;;;6267019;28;20059;-77
2023/01/18 16:01:16;;;;;;;31.05;17.20;;;;;;;;;;6270234;28;20506;-76
2023/01/18 16:04:22;;;;;;;32.58;16.75;;;;;;;;;;6269068;28;20053;-76
2023/01/18 16:07:34;;;;;;;172.80;80.25;;;;;;;;;;6273416;28;20265;-80
2023/01/18 16:10:36;;;;;;;72.00;36.85;;;;;;;;;;6268362;28;20337;-78
2023/01/18 16:13:39;;;;;;;53.63;27.85;;;;;;;;;;6269427;28;20049;-80
2023/01/18 16:16:42;;;;;;;92.63;46.60;;;;;;;;;;6268351;28;20106;-80
2023/01/18 16:19:46;;;;;;;87.25;43.78;;;;;;;;;;6271602;28;20057;-81
2023/01/18 16:22:52;;;;;;;71.55;36.88;;;;;;;;;;6269314;28;20063;-77
2023/01/18 16:26:01;;;;;;;36.72;19.67;;;;;;;;;;6264445;28;20059;-77
2023/01/18 16:29:07;;;;;;;35.10;18.10;;;;;;;;;;6267673;28;20123;-78
2023/01/18 16:32:28;;;;;;;32.83;16.80;;;;;;;;;;6270299;28;20061;-78
2023/01/18 16:35:30;;;;;;;30.35;16.17;;;;;;;;;;6267298;28;20052;-76
2023/01/18 16:38:33;;;;;;;156.77;85.70;;;;;;;;;;6267987;28;20045;-77
2023/01/18 16:41:34;;;;;;;89.18;48.70;;;;;;;;;;6263873;28;20108;-78
2023/01/18 16:44:38;;;;;;;42.42;22.40;;;;;;;;;;6264489;28;20371;-79
2023/01/18 16:47:39;;;;;;;38.65;17.75;;;;;;;;;;6267876;28;20084;-80
2023/01/18 16:50:41;;;;;;;33.03;17.42;;;;;;;;;;6267013;28;20059;-79
2023/01/18 16:53:44;;;;;;;34.05;17.50;;;;;;;;;;6266091;28;20095;-80
2023/01/18 16:56:47;;;;;;;32.92;17.42;;;;;;;;;;6267319;28;20061;-76
2023/01/18 16:59:49;;;;;;;30.90;16.92;;;;;;;;;;6265110;28;20049;-76
2023/01/18 17:02:51;;;;;;;33.30;17.52;;;;;;;;;;6266574;28;20067;-72
2023/01/18 17:05:54;;;;;;;31.67;16.92;;;;;;;;;;6265913;28;20122;-77
2023/01/18 17:08:57;;;;;;;34.95;18.30;;;;;;;;;;6266477;28;20055;-79
2023/01/18 17:11:58;;;;;;;38.78;18.50;;;;;;;;;;6265713;28;20514;-79
2023/01/18 17:15:00;;;;;;;37.70;19.27;;;;;;;;;;6266758;28;20062;-80
2023/01/18 17:18:02;;;;;;;32.97;18.42;;;;;;;;;;6267147;28;20397;-79
2023/01/18 17:21:04;;;;;;;36.25;19.08;;;;;;;;;;6265784;28;20347;-80
2023/01/18 17:24:07;;;;;;;37.38;18.70;;;;;;;;;;6266141;28;20057;-80
2023/01/18 17:27:11;;;;;;;37.37;20.00;;;;;;;;;;6268612;28;20057;-80
2023/01/18 17:30:16;;;;;;;39.67;19.67;;;;;;;;;;6263706;28;20049;-75
2023/01/18 17:33:20;;;;;;;42.33;19.38;;;;;;;;;;6265959;28;20041;-79
2023/01/18 17:36:21;;;;;;;41.83;20.38;;;;;;;;;;6264537;28;20056;-78
2023/01/18 17:39:24;;;;;;;43.00;21.30;;;;;;;;;;6262273;28;20055;-72
2023/01/18 17:42:26;;;;;;;42.00;21.20;;;;;;;;;;6264358;28;20339;-71
2023/01/18 17:45:27;;;;;;;43.80;21.58;;;;;;;;;;6262349;28;20391;-73
2023/01/18 17:48:29;;;;;;;47.75;21.80;;;;;;;;;;6261997;28;20067;-73
2023/01/18 17:51:33;;;;;;;45.58;22.65;;;;;;;;;;6261808;28;20059;-74
2023/01/18 17:54:36;;;;;;;50.72;24.75;;;;;;;;;;6263244;28;20119;-73
2023/01/18 17:57:38;;;;;;;50.97;25.65;;;;;;;;;;6261969;28;20068;-73
2023/01/18 18:00:40;;;;;;;58.47;27.75;;;;;;;;;;6263662;28;20048;-74
2023/01/18 18:03:43;;;;;;;56.75;27.67;;;;;;;;;;6262844;28;20457;-73
2023/01/18 18:06:46;;;;;;;52.25;25.63;;;;;;;;;;6265387;28;20110;-77
2023/01/18 18:09:49;;;;;;;52.58;25.15;;;;;;;;;;6262129;28;20053;-73
2023/01/18 18:12:51;;;;;;;55.33;27.63;;;;;;;;;;6263504;28;20112;-76
2023/01/18 18:15:53;;;;;;;49.45;25.60;;;;;;;;;;6263780;28;20055;-75
2023/01/18 18:18:55;;;;;;;51.10;26.98;;;;;;;;;;6262235;28;20121;-76
2023/01/18 18:21:57;;;;;;;52.88;26.55;;;;;;;;;;6264326;28;20392;-76
2023/01/18 18:25:00;;;;;;;50.75;26.55;;;;;;;;;;6261770;28;20061;-73
2023/01/18 18:28:02;;;;;;;48.20;25.92;;;;;;;;;;6262290;28;20249;-75
2023/01/18 18:31:04;;;;;;;52.65;26.10;;;;;;;;;;6262103;28;20107;-73
2023/01/18 18:34:06;;;;;;;53.97;25.77;;;;;;;;;;6262929;28;20241;-74